Time;durP1;ratioP1;P1;durP2;ratioP2;P2;SDS_P1;SDS_P2;PMS_P1;PMS_P2;Temp;Humidity;BMP_temperature;BMP_pressure;BME280_temperature;BME280_humidity;BME280_pressure;Samples;Min_cycle;Max_cycle;Signal;HPM_P1;HPM_P2
2023/05/06 00:02:16;;;;;;;13.98;11.50;;;18.50;87.60;;;;;;5012291;28;20117;-79
2023/05/06 00:04:42;;;;;;;16.63;11.05;;;18.50;87.50;;;;;;5012662;28;20045;-79
2023/05/06 00:07:07;;;;;;;18.13;11.75;;;18.50;87.90;;;;;;4996656;28;20033;-82
2023/05/06 00:09:33;;;;;;;18.05;12.18;;;18.50;88.20;;;;;;5011666;28;20088;-81
2023/05/06 00:11:59;;;;;;;14.15;11.55;;;18.50;88.00;;;;;;5012393;28;20037;-81
2023/05/06 00:14:25;;;;;;;16.05;11.73;;;18.40;88.20;;;;;;5012749;28;20080;-79
2023/05/06 00:16:50;;;;;;;14.38;11.93;;;18.40;88.30;;;;;;5012177;28;20034;-81
2023/05/06 00:19:16;;;;;;;16.60;13.00;;;18.40;88.60;;;;;;5011416;28;20042;-79
2023/05/06 00:21:42;;;;;;;15.43;11.80;;;18.40;88.90;;;;;;5012391;28;20053;-80
2023/05/06 00:24:08;;;;;;;14.05;11.60;;;18.40;89.00;;;;;;5012374;28;20053;-80
2023/05/06 00:26:33;;;;;;;14.95;11.55;;;18.40;89.10;;;;;;5012147;28;20034;-79
2023/05/06 00:28:59;;;;;;;17.37;12.30;;;18.30;89.20;;;;;;4967018;28;1300522;-79
2023/05/06 00:31:25;;;;;;;14.32;12.13;;;18.30;89.40;;;;;;5013061;28;20046;-80
2023/05/06 00:33:50;;;;;;;20.80;12.82;;;18.30;89.70;;;;;;5028197;28;20072;-81
2023/05/06 00:36:16;;;;;;;15.95;12.82;;;18.30;89.90;;;;;;5012898;28;20185;-80
2023/05/06 00:38:42;;;;;;;15.70;12.93;;;18.30;90.00;;;;;;5013061;28;20057;-79
2023/05/06 00:41:08;;;;;;;16.98;12.75;;;18.20;90.10;;;;;;5012695;28;20435;-79
2023/05/06 00:43:34;;;;;;;14.43;12.95;;;18.20;90.10;;;;;;5012502;28;20030;-79
2023/05/06 00:46:00;;;;;;;16.83;14.02;;;18.20;90.30;;;;;;5012847;28;20105;-79
2023/05/06 00:48:26;;;;;;;16.50;13.30;;;18.20;90.30;;;;;;5012818;28;20211;-77
2023/05/06 00:50:51;;;;;;;18.33;13.45;;;18.20;90.30;;;;;;5013999;28;20041;-79
2023/05/06 00:53:22;;;;;;;20.63;13.65;;;18.20;90.30;;;;;;5014540;28;20046;-79
2023/05/06 00:55:50;;;;;;;16.63;13.52;;;18.20;90.40;;;;;;5013122;28;20034;-79
2023/05/06 00:58:17;;;;;;;17.17;13.27;;;18.20;90.60;;;;;;5012613;28;20121;-80
2023/05/06 01:00:43;;;;;;;14.70;12.98;;;18.10;90.60;;;;;;5012187;28;20029;-79
2023/05/06 01:03:09;;;;;;;18.58;13.50;;;18.10;90.80;;;;;;5012169;28;20034;-79
2023/05/06 01:06:15;;;;;;;16.27;13.25;;;18.10;90.90;;;;;;4994873;28;20116;-78
2023/05/06 01:09:13;;;;;;;18.63;13.98;;;18.10;90.90;;;;;;4989701;28;20030;-79
2023/05/06 01:11:51;;;;;;;15.57;12.30;;;18.10;91.20;;;;;;5012069;28;20156;-80
2023/05/06 01:14:25;;;;;;;16.73;12.90;;;18.00;91.00;;;;;;5012385;28;20561;-79
2023/05/06 01:16:55;;;;;;;15.30;13.10;;;18.00;91.10;;;;;;5012178;28;20037;-80
2023/05/06 01:19:48;;;;;;;16.63;13.10;;;18.00;91.10;;;;;;5012046;28;20033;-78
2023/05/06 01:22:15;;;;;;;18.88;13.93;;;18.10;91.20;;;;;;5008731;28;20483;-79
2023/05/06 01:24:42;;;;;;;19.85;13.55;;;18.00;91.30;;;;;;5012028;28;20053;-79
2023/05/06 01:27:09;;;;;;;18.35;14.02;;;18.00;91.40;;;;;;5012191;28;20030;-79
2023/05/06 01:29:37;;;;;;;18.77;13.73;;;18.00;91.60;;;;;;5012329;28;20054;-79
2023/05/06 01:32:18;;;;;;;19.25;13.23;;;18.00;91.80;;;;;;5012280;28;20037;-79
2023/05/06 01:35:02;;;;;;;17.88;14.55;;;18.00;91.90;;;;;;5012354;28;20038;-78
2023/05/06 01:37:54;;;;;;;17.83;14.50;;;18.00;92.10;;;;;;5012362;28;20113;-79
2023/05/06 01:40:24;;;;;;;20.38;14.70;;;18.00;92.10;;;;;;4950119;28;20034;-80
2023/05/06 01:42:51;;;;;;;18.52;13.25;;;18.00;92.10;;;;;;5012420;28;20038;-79
2023/05/06 01:45:18;;;;;;;20.27;14.27;;;17.90;92.20;;;;;;5012521;28;20494;-80
2023/05/06 01:47:45;;;;;;;15.60;13.88;;;18.00;92.30;;;;;;5012227;28;20018;-79
2023/05/06 01:50:11;;;;;;;20.65;14.63;;;17.90;92.40;;;;;;5012308;28;20041;-79
2023/05/06 01:52:37;;;;;;;18.42;14.10;;;17.90;92.60;;;;;;5012172;28;20085;-78
2023/05/06 01:55:03;;;;;;;18.08;13.98;;;17.90;92.80;;;;;;5012042;28;20427;-80
2023/05/06 01:57:29;;;;;;;17.95;14.40;;;17.90;92.80;;;;;;5012088;28;20045;-80
2023/05/06 01:59:55;;;;;;;18.55;14.68;;;17.90;92.90;;;;;;5011886;28;20045;-80
2023/05/06 02:02:20;;;;;;;18.63;14.80;;;17.90;93.00;;;;;;5012161;28;20152;-79
2023/05/06 02:04:46;;;;;;;17.98;14.65;;;17.90;93.10;;;;;;5012052;28;20034;-80
2023/05/06 02:07:11;;;;;;;18.52;14.05;;;17.90;93.10;;;;;;5012239;28;20088;-80
2023/05/06 02:09:37;;;;;;;20.65;14.15;;;17.90;93.20;;;;;;5011729;28;20057;-79
2023/05/06 02:12:03;;;;;;;18.20;12.63;;;17.90;93.20;;;;;;5011535;28;20042;-79
2023/05/06 02:14:29;;;;;;;17.27;12.90;;;17.90;93.30;;;;;;5011925;28;20045;-78
2023/05/06 02:16:55;;;;;;;19.40;14.38;;;17.90;93.40;;;;;;5011919;28;20113;-79
2023/05/06 02:19:21;;;;;;;18.33;14.38;;;17.90;93.50;;;;;;5012257;28;20034;-79
2023/05/06 02:21:46;;;;;;;18.98;14.73;;;17.90;93.50;;;;;;5012164;28;20030;-80
2023/05/06 02:24:12;;;;;;;17.05;13.60;;;17.90;93.50;;;;;;5011950;28;20146;-80
2023/05/06 02:26:37;;;;;;;18.10;13.75;;;17.90;93.50;;;;;;5011550;28;20042;-78
2023/05/06 02:29:03;;;;;;;20.38;14.13;;;17.90;93.40;;;;;;5012084;28;20442;-79
2023/05/06 02:31:29;;;;;;;16.98;14.00;;;17.90;93.50;;;;;;5011790;28;20554;-80
2023/05/06 02:33:55;;;;;;;18.60;14.07;;;18.00;93.60;;;;;;5013346;28;20046;-79
2023/05/06 02:36:20;;;;;;;18.85;15.05;;;18.00;93.60;;;;;;5015514;28;20482;-79
2023/05/06 02:38:46;;;;;;;17.85;13.77;;;17.90;93.50;;;;;;5015244;28;20506;-79
2023/05/06 02:41:11;;;;;;;17.55;13.38;;;17.80;93.40;;;;;;5014967;28;20372;-79
2023/05/06 02:43:37;;;;;;;14.95;11.30;;;17.70;93.10;;;;;;4997707;28;20045;-79
2023/05/06 02:46:03;;;;;;;15.35;11.07;;;17.70;93.20;;;;;;5015118;28;20041;-79
2023/05/06 02:48:28;;;;;;;17.95;11.38;;;17.60;92.70;;;;;;5015545;28;20060;-78
2023/05/06 02:50:54;;;;;;;12.18;10.23;;;17.50;92.30;;;;;;5015186;28;20034;-79
2023/05/06 02:53:20;;;;;;;15.65;11.25;;;17.50;92.00;;;;;;5014614;28;20052;-79
2023/05/06 02:55:45;;;;;;;13.57;10.27;;;17.40;91.80;;;;;;5014760;28;20034;-79
2023/05/06 02:58:11;;;;;;;14.98;10.60;;;17.40;91.80;;;;;;5014778;28;20038;-79
2023/05/06 03:00:37;;;;;;;12.82;10.23;;;17.40;91.30;;;;;;5014766;28;20113;-79
2023/05/06 03:03:02;;;;;;;20.10;10.30;;;17.40;91.20;;;;;;4997060;28;20045;-79
2023/05/06 03:05:28;;;;;;;13.82;10.07;;;17.30;90.90;;;;;;5014853;28;20371;-80
2023/05/06 03:07:54;;;;;;;16.70;10.23;;;17.30;90.70;;;;;;5014796;28;20125;-79
2023/05/06 03:10:20;;;;;;;13.38;10.55;;;17.20;90.60;;;;;;5014375;28;20057;-79
2023/05/06 03:12:45;;;;;;;12.43;10.30;;;17.20;90.50;;;;;;5014532;28;20046;-79
2023/05/06 03:15:11;;;;;;;15.45;10.57;;;17.20;90.40;;;;;;5014530;28;20063;-80
2023/05/06 03:17:37;;;;;;;15.48;10.07;;;17.10;90.30;;;;;;5014661;28;20052;-79
2023/05/06 03:20:03;;;;;;;13.65;9.70;;;17.10;90.20;;;;;;5014610;28;20395;-79
2023/05/06 03:22:29;;;;;;;13.65;10.18;;;17.20;90.20;;;;;;5014503;28;20404;-79
2023/05/06 03:24:55;;;;;;;14.27;10.57;;;17.30;90.10;;;;;;5014443;28;20050;-78
2023/05/06 03:27:20;;;;;;;14.52;10.35;;;17.30;90.00;;;;;;5014466;28;20061;-80
2023/05/06 12:56:51;;;;;;;4.25;2.17;;;28.00;48.10;;;;;;4993914;28;20113;-73
2023/05/06 12:59:16;;;;;;;6.20;2.40;;;28.00;49.20;;;;;;5004013;28;20131;-73
2023/05/06 13:01:42;;;;;;;5.25;2.08;;;28.00;49.20;;;;;;5001430;28;20041;-74
2023/05/06 13:04:08;;;;;;;4.57;2.00;;;27.90;48.20;;;;;;5000777;28;20049;-75
2023/05/06 13:06:33;;;;;;;4.72;2.33;;;27.90;48.10;;;;;;5006200;28;20042;-73
2023/05/06 13:08:59;;;;;;;5.65;2.08;;;27.90;47.40;;;;;;5012103;28;20026;-77
2023/05/06 13:11:26;;;;;;;8.20;2.20;;;27.80;46.50;;;;;;5011534;28;20089;-77
2023/05/06 13:13:52;;;;;;;3.63;1.90;;;27.70;46.20;;;;;;5002768;28;20048;-77
2023/05/06 13:16:18;;;;;;;26.13;7.95;;;27.60;45.80;;;;;;4992492;28;20105;-79
2023/05/06 13:18:43;;;;;;;13.75;4.57;;;27.70;46.00;;;;;;4992378;28;20042;-76
2023/05/06 13:21:09;;;;;;;4.00;1.88;;;27.70;46.60;;;;;;5001957;28;20092;-78
2023/05/06 13:23:36;;;;;;;6.60;2.60;;;27.70;46.50;;;;;;4999918;28;20060;-76
2023/05/06 13:26:04;;;;;;;5.28;2.53;;;27.80;46.50;;;;;;5008096;28;20042;-75
2023/05/06 13:28:30;;;;;;;5.05;2.00;;;27.70;46.30;;;;;;5010943;28;20085;-75
2023/05/06 13:30:56;;;;;;;6.68;2.55;;;27.80;45.70;;;;;;5009022;28;20424;-75
2023/05/06 13:33:22;;;;;;;14.55;2.85;;;27.80;46.10;;;;;;5008521;28;20117;-76
2023/05/06 13:35:47;;;;;;;5.32;2.00;;;27.80;46.00;;;;;;5012097;28;20033;-76
2023/05/06 13:38:13;;;;;;;4.18;2.33;;;27.90;45.70;;;;;;5012317;28;20400;-77
2023/05/06 13:40:39;;;;;;;6.43;2.47;;;27.90;45.80;;;;;;5012773;28;20066;-76
2023/05/06 13:43:04;;;;;;;4.45;2.10;;;27.80;46.40;;;;;;5011661;28;20030;-76
2023/05/06 13:45:32;;;;;;;4.63;2.22;;;27.80;46.50;;;;;;5025854;28;20072;-74
2023/05/06 13:47:58;;;;;;;7.57;2.47;;;27.80;46.30;;;;;;5011816;28;20037;-74
2023/05/06 13:50:23;;;;;;;20.48;4.82;;;27.80;47.50;;;;;;5011786;28;20403;-74
2023/05/06 13:52:50;;;;;;;16.67;5.10;;;27.80;47.30;;;;;;5012429;28;20567;-77
2023/05/06 13:55:15;;;;;;;19.80;4.80;;;27.80;47.30;;;;;;5011831;28;20037;-73
2023/05/06 13:57:41;;;;;;;8.15;2.88;;;27.90;47.50;;;;;;5012214;28;20122;-75
2023/05/06 14:00:09;;;;;;;12.68;3.83;;;27.80;46.90;;;;;;5011962;28;20517;-76
2023/05/06 14:02:35;;;;;;;17.30;5.47;;;27.80;46.60;;;;;;5012174;28;20030;-75
2023/05/06 14:05:01;;;;;;;13.40;4.22;;;27.80;47.00;;;;;;5008656;28;20038;-75
2023/05/06 14:07:27;;;;;;;8.95;3.67;;;27.80;46.80;;;;;;5000861;28;20052;-75
2023/05/06 14:09:52;;;;;;;12.23;3.60;;;27.90;46.60;;;;;;5007162;28;20114;-73
2023/05/06 14:12:18;;;;;;;15.63;4.75;;;27.80;46.40;;;;;;5001538;28;20130;-74
2023/05/06 14:14:44;;;;;;;26.88;6.50;;;27.80;46.90;;;;;;5010540;28;20037;-75
2023/05/06 14:17:09;;;;;;;24.65;7.30;;;27.80;47.20;;;;;;5010151;28;20391;-75
2023/05/06 14:19:35;;;;;;;8.18;3.03;;;27.80;47.00;;;;;;5010936;28;20042;-76
2023/05/06 14:22:01;;;;;;;9.68;3.28;;;27.80;46.50;;;;;;5011958;28;20049;-75
2023/05/06 14:24:26;;;;;;;8.20;3.33;;;27.80;46.60;;;;;;5011973;28;20152;-75
2023/05/06 14:26:52;;;;;;;18.15;5.82;;;27.80;46.80;;;;;;5012306;28;20432;-75
2023/05/06 14:29:18;;;;;;;11.38;3.45;;;27.70;47.70;;;;;;4995429;28;20034;-74
2023/05/06 14:31:44;;;;;;;17.13;5.47;;;27.60;47.30;;;;;;5015482;28;20360;-74
2023/05/06 14:34:10;;;;;;;37.50;10.98;;;27.60;47.70;;;;;;5015487;28;20042;-75
2023/05/06 14:36:36;;;;;;;13.05;4.20;;;27.60;48.30;;;;;;5015679;28;20068;-76
2023/05/06 14:39:01;;;;;;;21.95;7.95;;;27.60;47.80;;;;;;5015374;28;20113;-74
2023/05/06 14:41:27;;;;;;;12.23;3.90;;;27.60;48.00;;;;;;5015484;28;20029;-75
2023/05/06 14:43:52;;;;;;;11.00;2.72;;;27.60;48.10;;;;;;5015457;28;20044;-75
2023/05/06 14:46:18;;;;;;;13.23;3.92;;;27.60;47.60;;;;;;5015792;28;20025;-74
2023/05/06 14:48:44;;;;;;;8.98;3.08;;;27.60;47.20;;;;;;5015760;28;20084;-75
2023/05/06 14:51:10;;;;;;;10.68;3.88;;;27.50;47.30;;;;;;4997546;28;20037;-74
2023/05/06 14:53:35;;;;;;;11.70;4.75;;;27.50;47.70;;;;;;5015007;28;20050;-74
2023/05/06 14:56:01;;;;;;;8.00;2.30;;;27.50;48.10;;;;;;5015034;28;20038;-74
2023/05/06 14:58:27;;;;;;;7.90;3.05;;;27.40;47.50;;;;;;5014939;28;20432;-74
2023/05/06 15:00:52;;;;;;;15.13;3.90;;;27.40;47.40;;;;;;5014912;28;20507;-75
2023/05/06 15:03:18;;;;;;;9.50;3.45;;;27.30;47.60;;;;;;5014732;28;20431;-74
2023/05/06 15:05:44;;;;;;;11.07;3.80;;;27.30;48.00;;;;;;5015038;28;20033;-74
2023/05/06 15:08:09;;;;;;;5.20;1.95;;;27.30;48.50;;;;;;5014808;28;20512;-75
2023/05/06 15:10:35;;;;;;;5.00;2.10;;;27.30;48.10;;;;;;5014666;28;20125;-76
2023/05/06 15:13:01;;;;;;;7.55;2.95;;;27.20;47.90;;;;;;5014149;28;20026;-74
2023/05/06 15:15:26;;;;;;;6.70;2.80;;;27.30;47.90;;;;;;5014379;28;20092;-74
2023/05/06 15:17:52;;;;;;;7.95;3.00;;;27.30;47.90;;;;;;5014471;28;20030;-75
2023/05/06 15:20:18;;;;;;;5.65;2.33;;;27.30;48.20;;;;;;5013141;28;20522;-75
2023/05/06 15:22:43;;;;;;;6.60;2.40;;;27.30;48.10;;;;;;5014487;28;20400;-74
2023/05/06 15:25:09;;;;;;;4.22;1.95;;;27.30;48.20;;;;;;5014329;28;20109;-75
2023/05/06 15:27:36;;;;;;;4.72;2.20;;;27.30;47.40;;;;;;5014540;28;20041;-76
2023/05/06 15:30:03;;;;;;;6.72;2.45;;;27.20;47.70;;;;;;5014505;28;20041;-74
2023/05/06 15:32:30;;;;;;;3.47;1.77;;;27.20;48.10;;;;;;5014393;28;20109;-74
2023/05/06 15:34:56;;;;;;;5.13;1.80;;;27.20;48.00;;;;;;5014226;28;20164;-74
2023/05/06 15:37:22;;;;;;;5.63;2.08;;;27.00;47.80;;;;;;5013972;28;20058;-74
2023/05/06 15:39:48;;;;;;;9.25;3.53;;;27.00;47.50;;;;;;5014019;28;20041;-74
2023/05/06 15:42:15;;;;;;;7.13;2.80;;;26.90;47.50;;;;;;5012975;28;20030;-74
2023/05/06 15:44:41;;;;;;;11.57;2.53;;;26.90;47.80;;;;;;5014202;28;20085;-75
2023/05/06 15:47:07;;;;;;;5.40;2.40;;;26.90;47.50;;;;;;5013914;28;20465;-75
2023/05/06 15:49:33;;;;;;;4.97;2.20;;;26.80;47.10;;;;;;5013768;28;20100;-75
2023/05/06 15:51:58;;;;;;;7.25;2.33;;;26.80;47.10;;;;;;5013661;28;20542;-73
2023/05/06 15:54:24;;;;;;;5.20;2.38;;;26.80;47.10;;;;;;4996192;28;20054;-74
2023/05/06 15:56:50;;;;;;;7.53;2.10;;;26.80;47.10;;;;;;5013651;28;20057;-75
2023/05/06 15:59:15;;;;;;;4.70;2.25;;;26.80;47.10;;;;;;5013581;28;20504;-75
2023/05/06 16:01:42;;;;;;;3.75;1.75;;;26.80;46.70;;;;;;5013892;28;20113;-74
2023/05/06 16:04:08;;;;;;;4.30;1.77;;;26.80;46.10;;;;;;4996146;28;20041;-74
2023/05/06 16:06:34;;;;;;;3.78;1.85;;;26.70;46.10;;;;;;5013770;28;20038;-74
2023/05/06 16:08:59;;;;;;;4.75;1.80;;;26.70;46.30;;;;;;5013343;28;20034;-75
2023/05/06 16:11:25;;;;;;;4.28;1.67;;;26.60;46.20;;;;;;5013415;28;20044;-75
2023/05/06 16:13:51;;;;;;;6.78;2.30;;;26.60;46.30;;;;;;4995874;28;20412;-73
2023/05/06 16:16:16;;;;;;;4.53;1.83;;;26.60;46.70;;;;;;5013662;28;20030;-75
2023/05/06 16:18:42;;;;;;;4.43;1.98;;;26.50;46.80;;;;;;5013945;28;20042;-75
2023/05/06 16:21:07;;;;;;;5.45;1.98;;;26.40;46.80;;;;;;5013390;28;20026;-76
2023/05/06 16:23:35;;;;;;;4.40;2.05;;;26.40;47.30;;;;;;5013609;28;20029;-75
2023/05/06 16:26:01;;;;;;;5.22;1.80;;;26.30;47.20;;;;;;5013377;28;20034;-74
2023/05/06 16:28:27;;;;;;;4.82;2.17;;;26.30;46.90;;;;;;5013264;28;20061;-75
2023/05/06 16:30:53;;;;;;;4.53;1.90;;;26.20;47.10;;;;;;5013158;28;20069;-74
2023/05/06 16:33:18;;;;;;;5.65;2.08;;;26.10;47.40;;;;;;5012771;28;20124;-74
2023/05/06 16:35:44;;;;;;;3.05;1.75;;;26.10;47.70;;;;;;5012793;28;20507;-74
2023/05/06 16:38:10;;;;;;;4.57;1.60;;;26.10;48.10;;;;;;5012826;28;20034;-75
2023/05/06 16:40:46;;;;;;;3.60;1.70;;;26.00;48.20;;;;;;5012765;28;20109;-74
2023/05/06 16:43:12;;;;;;;6.25;1.80;;;26.00;48.60;;;;;;5012885;28;20093;-74
2023/05/06 16:45:44;;;;;;;5.35;1.70;;;26.00;48.90;;;;;;5013083;28;20491;-76
2023/05/06 16:48:11;;;;;;;4.35;2.00;;;25.90;48.60;;;;;;5012728;28;20108;-74
2023/05/06 16:50:36;;;;;;;6.78;2.00;;;25.90;49.00;;;;;;5013171;28;20133;-74
2023/05/06 16:53:02;;;;;;;3.38;1.85;;;25.90;49.20;;;;;;4994852;28;20407;-75
2023/05/06 16:55:28;;;;;;;3.92;1.60;;;25.80;49.50;;;;;;4995338;28;20057;-74
2023/05/06 16:57:54;;;;;;;3.70;1.30;;;25.80;49.60;;;;;;5012868;28;20058;-75
2023/05/06 17:00:19;;;;;;;5.97;1.60;;;25.70;49.90;;;;;;5013390;28;20502;-73
2023/05/06 17:02:46;;;;;;;2.97;1.63;;;25.60;50.40;;;;;;5011825;28;20044;-75
2023/05/06 17:05:12;;;;;;;2.55;1.40;;;25.50;50.60;;;;;;5012514;28;20034;-75
2023/05/06 17:07:37;;;;;;;3.53;1.98;;;25.50;50.60;;;;;;5013046;28;20045;-75
2023/05/06 17:10:04;;;;;;;4.80;1.73;;;25.40;51.00;;;;;;5012707;28;20068;-75
2023/05/06 17:12:31;;;;;;;5.72;1.65;;;25.30;50.80;;;;;;5012226;28;20447;-75
2023/05/06 17:14:56;;;;;;;3.60;1.92;;;25.20;51.20;;;;;;5012673;28;20038;-74
2023/05/06 17:17:27;;;;;;;5.32;1.80;;;25.10;51.30;;;;;;4995053;28;20157;-75
2023/05/06 17:19:54;;;;;;;4.28;1.75;;;25.00;51.60;;;;;;5012746;28;20037;-75
2023/05/06 17:22:20;;;;;;;4.07;1.90;;;25.00;51.90;;;;;;5012426;28;20448;-76
2023/05/06 17:24:46;;;;;;;3.85;1.73;;;24.90;52.30;;;;;;5012579;28;20045;-74
2023/05/06 17:27:12;;;;;;;4.38;1.50;;;24.80;52.80;;;;;;5012370;28;20040;-75
2023/05/06 17:29:38;;;;;;;8.15;1.92;;;24.70;53.00;;;;;;5011837;28;20045;-74
2023/05/06 17:32:03;;;;;;;5.30;1.83;;;24.60;53.70;;;;;;5012269;28;20053;-73
2023/05/06 17:34:29;;;;;;;5.50;2.10;;;24.50;53.90;;;;;;4989189;28;20467;-73
2023/05/06 17:36:56;;;;;;;7.93;2.40;;;24.40;54.60;;;;;;4992822;28;20085;-73
2023/05/06 17:39:21;;;;;;;7.60;2.15;;;24.30;55.10;;;;;;4992701;28;20046;-76
2023/05/06 17:41:48;;;;;;;8.77;2.75;;;24.20;55.60;;;;;;4996141;28;20038;-75
2023/05/06 17:44:16;;;;;;;5.70;2.05;;;24.10;55.90;;;;;;5011403;28;20046;-76
2023/05/06 17:46:44;;;;;;;5.22;1.75;;;24.10;56.10;;;;;;5011652;28;20045;-74
2023/05/06 17:49:10;;;;;;;4.88;1.83;;;23.90;56.30;;;;;;5013023;28;20052;-85
2023/05/06 17:51:36;;;;;;;5.00;2.00;;;23.80;56.70;;;;;;5013251;28;20117;-79
2023/05/06 17:54:01;;;;;;;3.50;1.45;;;23.70;56.80;;;;;;5012427;28;20451;-77
2023/05/06 17:56:27;;;;;;;5.45;1.85;;;23.70;56.90;;;;;;5012136;28;20152;-78
2023/05/06 17:58:53;;;;;;;5.93;2.00;;;23.50;57.30;;;;;;5011957;28;20124;-82
2023/05/06 18:01:18;;;;;;;5.32;1.90;;;23.40;58.30;;;;;;5012486;28;20034;-81
2023/05/06 18:03:44;;;;;;;6.20;1.92;;;23.40;58.00;;;;;;5011249;28;20030;-70
2023/05/06 18:06:11;;;;;;;6.00;2.33;;;23.30;58.50;;;;;;5015942;28;20606;-85
2023/05/06 18:08:36;;;;;;;5.53;2.20;;;23.20;59.10;;;;;;5016784;28;20040;-77
2023/05/06 18:11:02;;;;;;;7.75;2.10;;;23.20;59.40;;;;;;5016343;28;20061;-73
2023/05/06 18:13:28;;;;;;;4.90;1.90;;;23.10;59.70;;;;;;5016407;28;20057;-82
2023/05/06 18:15:53;;;;;;;5.95;2.13;;;23.10;59.60;;;;;;5013869;28;20041;-80
2023/05/06 18:18:19;;;;;;;5.25;2.00;;;23.00;60.10;;;;;;5015598;28;20108;-77
2023/05/06 18:20:45;;;;;;;3.40;1.67;;;23.00;60.20;;;;;;5015733;28;20030;-77
2023/05/06 18:23:10;;;;;;;3.67;1.50;;;23.00;60.40;;;;;;5016437;28;20038;-78
2023/05/06 18:25:36;;;;;;;5.00;2.08;;;22.90;60.20;;;;;;5015323;28;20030;-78
2023/05/06 18:28:03;;;;;;;6.70;2.63;;;22.90;60.70;;;;;;5015144;28;20391;-78
2023/05/06 18:30:29;;;;;;;4.35;1.80;;;22.80;60.70;;;;;;5015450;28;20060;-77
2023/05/06 18:32:55;;;;;;;3.75;1.52;;;22.80;60.90;;;;;;5030637;28;20078;-76
2023/05/06 18:35:20;;;;;;;4.32;1.90;;;22.70;60.90;;;;;;5015349;28;20547;-76
2023/05/06 18:37:46;;;;;;;5.13;2.25;;;22.60;61.30;;;;;;5016055;28;20480;-77
2023/05/06 18:40:13;;;;;;;4.72;2.60;;;22.50;61.60;;;;;;5015949;28;20038;-84
2023/05/06 18:42:39;;;;;;;5.90;2.95;;;22.40;62.10;;;;;;5015778;28;20030;-79
2023/05/06 18:45:06;;;;;;;6.43;2.92;;;22.40;62.60;;;;;;5015069;28;20041;-79
2023/05/06 21:29:45;;;;;;;9.73;3.30;;;20.10;81.70;;;;;;6247155;22;1409829;-77
2023/05/06 21:32:11;;;;;;;6.60;3.53;;;20.10;81.00;;;;;;6307112;22;20010;-79
2023/05/06 21:34:36;;;;;;;7.75;3.20;;;20.10;81.20;;;;;;6307320;22;20003;-79
2023/05/06 21:37:02;;;;;;;8.13;3.97;;;20.10;81.30;;;;;;6307424;22;19991;-78
2023/05/06 21:39:28;;;;;;;6.85;4.10;;;20.10;81.60;;;;;;6280325;22;20451;-79
2023/05/06 21:41:53;;;;;;;5.30;3.53;;;20.10;81.60;;;;;;6306806;22;20027;-79
2023/05/06 21:44:19;;;;;;;6.72;3.60;;;20.10;81.90;;;;;;6306837;22;20051;-80
2023/05/06 21:46:45;;;;;;;7.10;4.03;;;20.10;82.00;;;;;;6306728;22;19999;-78
2023/05/06 21:49:10;;;;;;;6.38;3.90;;;20.00;81.80;;;;;;6307003;22;20348;-79
2023/05/06 21:51:36;;;;;;;6.65;3.92;;;20.00;81.90;;;;;;6307037;22;20058;-81
2023/05/06 21:54:02;;;;;;;6.97;3.92;;;20.00;82.40;;;;;;6306882;22;20452;-78
2023/05/06 21:56:27;;;;;;;6.47;3.80;;;19.90;82.40;;;;;;6307101;22;20523;-79
2023/05/06 21:58:57;;;;;;;8.10;4.47;;;19.90;82.40;;;;;;6307205;22;20090;-80
2023/05/06 22:01:27;;;;;;;6.18;3.90;;;19.90;82.60;;;;;;6306999;22;19995;-79
2023/05/06 22:03:53;;;;;;;6.40;4.30;;;19.90;82.50;;;;;;6307117;22;20585;-79
2023/05/06 22:06:19;;;;;;;7.07;4.47;;;19.90;82.60;;;;;;6307001;22;19998;-80
2023/05/06 22:08:45;;;;;;;7.88;4.03;;;19.80;82.70;;;;;;6305770;22;19999;-80
2023/05/06 22:11:12;;;;;;;8.05;4.60;;;19.80;82.70;;;;;;6307676;22;20018;-79
2023/05/06 22:13:37;;;;;;;7.05;4.40;;;19.80;83.10;;;;;;6308412;22;20026;-78
2023/05/06 22:16:03;;;;;;;7.13;5.07;;;19.80;83.10;;;;;;6307435;22;20007;-80
2023/05/06 22:18:29;;;;;;;10.23;6.18;;;19.70;83.30;;;;;;6307211;22;20015;-80
2023/05/06 22:20:56;;;;;;;8.25;6.18;;;19.70;83.60;;;;;;6306278;22;19995;-79
2023/05/06 22:23:23;;;;;;;9.48;6.05;;;19.70;83.80;;;;;;6306854;22;20102;-81
2023/05/06 22:25:50;;;;;;;9.32;6.70;;;19.60;83.70;;;;;;6306950;22;20049;-79
2023/05/06 22:28:17;;;;;;;8.55;6.68;;;19.60;84.00;;;;;;6307146;22;20007;-81
2023/05/06 22:30:42;;;;;;;10.13;6.57;;;19.60;84.20;;;;;;6305993;22;20011;-80
2023/05/06 22:33:08;;;;;;;9.82;6.90;;;19.60;84.40;;;;;;6306646;22;20379;-79
2023/05/06 22:35:34;;;;;;;8.77;6.50;;;19.50;84.40;;;;;;6306644;22;20071;-80
2023/05/06 22:37:59;;;;;;;8.10;6.68;;;19.50;84.60;;;;;;6306543;22;20034;-80
2023/05/06 22:40:26;;;;;;;9.30;6.97;;;19.50;84.70;;;;;;6306526;22;19999;-78
2023/05/06 22:42:52;;;;;;;8.85;7.18;;;19.50;84.80;;;;;;6307083;22;20039;-81
2023/05/06 22:45:18;;;;;;;12.60;7.00;;;19.50;84.90;;;;;;6306669;22;20049;-79
2023/05/06 22:47:44;;;;;;;9.63;6.78;;;19.50;85.10;;;;;;6306837;22;20003;-79
2023/05/06 22:50:10;;;;;;;8.18;6.55;;;19.40;85.10;;;;;;6279465;22;20170;-80
2023/05/06 22:52:36;;;;;;;8.88;6.80;;;19.40;85.40;;;;;;6307172;22;20100;-80
2023/05/06 22:55:03;;;;;;;8.48;6.53;;;19.40;85.40;;;;;;6306666;22;20090;-80
2023/05/06 22:57:29;;;;;;;9.93;6.80;;;19.40;85.40;;;;;;6307904;22;20008;-80
2023/05/06 22:59:54;;;;;;;8.98;6.85;;;19.40;85.80;;;;;;6280204;22;20121;-78
2023/05/06 23:02:20;;;;;;;8.70;6.65;;;19.50;85.80;;;;;;6279501;22;20004;-79
2023/05/06 23:04:46;;;;;;;9.80;7.22;;;19.40;85.60;;;;;;6306659;22;19999;-79
2023/05/06 23:07:12;;;;;;;9.25;7.20;;;19.40;85.80;;;;;;6306602;22;20006;-80
2023/05/06 23:09:38;;;;;;;10.38;7.10;;;19.40;85.80;;;;;;6306818;22;20006;-80
2023/05/06 23:12:05;;;;;;;9.30;7.15;;;19.40;86.30;;;;;;6306968;22;20003;-80
2023/05/06 23:14:30;;;;;;;9.20;7.25;;;19.40;86.10;;;;;;6306847;22;20126;-79
2023/05/06 23:16:56;;;;;;;11.32;7.20;;;19.40;86.10;;;;;;6306548;22;20360;-80
2023/05/06 23:19:22;;;;;;;9.38;7.00;;;19.40;86.10;;;;;;6306574;22;20375;-79
2023/05/06 23:21:47;;;;;;;10.48;7.63;;;19.40;86.30;;;;;;6279211;22;20004;-80
2023/05/06 23:24:13;;;;;;;12.40;7.63;;;19.40;86.30;;;;;;6306338;22;20057;-79
2023/05/06 23:26:38;;;;;;;9.88;7.30;;;19.30;86.30;;;;;;6307027;22;20417;-80
2023/05/06 23:29:04;;;;;;;9.57;7.53;;;19.30;86.40;;;;;;6307510;22;20424;-78
2023/05/06 23:31:30;;;;;;;11.88;7.47;;;19.30;86.70;;;;;;6306638;22;20002;-79
2023/05/06 23:33:55;;;;;;;9.25;6.75;;;19.30;86.90;;;;;;6306698;22;20451;-80
2023/05/06 23:36:21;;;;;;;10.27;6.80;;;19.20;87.00;;;;;;6308773;22;20417;-79
2023/05/06 23:38:47;;;;;;;9.52;6.65;;;19.20;87.00;;;;;;6308911;22;20033;-78
2023/05/06 23:41:12;;;;;;;10.05;6.68;;;19.20;87.20;;;;;;6308705;22;20484;-79
2023/05/06 23:43:38;;;;;;;12.43;7.95;;;19.20;87.30;;;;;;6282113;22;20007;-79
2023/05/06 23:46:03;;;;;;;8.38;6.85;;;19.20;87.30;;;;;;6308816;22;20048;-79
2023/05/06 23:48:29;;;;;;;8.00;6.82;;;19.20;87.40;;;;;;6308502;22;20394;-79
2023/05/06 23:50:55;;;;;;;10.23;6.97;;;19.20;87.70;;;;;;6308538;22;20004;-79
2023/05/06 23:53:21;;;;;;;10.43;7.35;;;19.20;87.80;;;;;;6308607;22;20417;-81
2023/05/06 23:55:47;;;;;;;8.38;7.22;;;19.20;87.80;;;;;;6308644;22;20000;-79
2023/05/06 23:58:12;;;;;;;9.68;8.05;;;19.20;87.80;;;;;;6309992;22;20007;-79
